sensor_id;sensor_type;location;lat;lon;timestamp;P1;P2;P0
70436;PMS5003;57877;39.750;-104.894;2023-07-02T00:02:11;2;2;
70436;PMS5003;57877;39.750;-104.894;2023-07-02T00:04:37;3;3;
70436;PMS5003;57877;39.750;-104.894;2023-07-02T00:07:01;2;2;
70436;PMS5003;57877;39.750;-104.894;2023-07-02T00:09:26;0;0;
70436;PMS5003;57877;39.750;-104.894;2023-07-02T00:11:52;0;0;
70436;PMS5003;57877;39.750;-104.894;2023-07-02T00:14:17;0;0;
70436;PMS5003;57877;39.750;-104.894;2023-07-02T00:16:43;2;1;
70436;PMS5003;57877;39.750;-104.894;2023-07-02T00:19:07;0;0;
70436;PMS5003;57877;39.750;-104.894;2023-07-02T00:21:32;3;3;
70436;PMS5003;57877;39.750;-104.894;2023-07-02T00:23:57;2;2;
70436;PMS5003;57877;39.750;-104.894;2023-07-02T00:26:22;3;3;
70436;PMS5003;57877;39.750;-104.894;2023-07-02T00:28:47;3;3;
70436;PMS5003;57877;39.750;-104.894;2023-07-02T00:31:12;0;0;
70436;PMS5003;57877;39.750;-104.894;2023-07-02T00:33:37;0;0;
70436;PMS5003;57877;39.750;-104.894;2023-07-02T00:36:02;1;1;
70436;PMS5003;57877;39.750;-104.894;2023-07-02T00:38:27;0;0;
70436;PMS5003;57877;39.750;-104.894;2023-07-02T00:40:53;1;1;
70436;PMS5003;57877;39.750;-104.894;2023-07-02T00:43:19;2;1;
70436;PMS5003;57877;39.750;-104.894;2023-07-02T00:45:45;0;0;
70436;PMS5003;57877;39.750;-104.894;2023-07-02T00:48:11;0;0;
70436;PMS5003;57877;39.750;-104.894;2023-07-02T00:50:37;2;1;
70436;PMS5003;57877;39.750;-104.894;2023-07-02T00:53:03;0;0;
70436;PMS5003;57877;39.750;-104.894;2023-07-02T00:55:29;0;0;
70436;PMS5003;57877;39.750;-104.894;2023-07-02T00:58:00;0;0;
70436;PMS5003;57877;39.750;-104.894;2023-07-02T01:00:20;0;0;
70436;PMS5003;57877;39.750;-104.894;2023-07-02T01:05:14;0;0;
70436;PMS5003;57877;39.750;-104.894;2023-07-02T01:07:35;0;0;
70436;PMS5003;57877;39.750;-104.894;2023-07-02T01:10:00;0;0;
70436;PMS5003;57877;39.750;-104.894;2023-07-02T01:12:25;0;0;
70436;PMS5003;57877;39.750;-104.894;2023-07-02T01:14:51;0;0;
70436;PMS5003;57877;39.750;-104.894;2023-07-02T01:17:16;1;0;
70436;PMS5003;57877;39.750;-104.894;2023-07-02T01:19:42;1;0;
70436;PMS5003;57877;39.750;-104.894;2023-07-02T01:22:06;0;0;
70436;PMS5003;57877;39.750;-104.894;2023-07-02T01:24:30;0;0;
70436;PMS5003;57877;39.750;-104.894;2023-07-02T01:26:55;0;0;
70436;PMS5003;57877;39.750;-104.894;2023-07-02T01:29:21;0;0;
70436;PMS5003;57877;39.750;-104.894;2023-07-02T01:31:47;0;0;
70436;PMS5003;57877;39.750;-104.894;2023-07-02T01:34:11;0;0;
70436;PMS5003;57877;39.750;-104.894;2023-07-02T01:36:41;0;0;
70436;PMS5003;57877;39.750;-104.894;2023-07-02T01:39:01;0;0;
70436;PMS5003;57877;39.750;-104.894;2023-07-02T01:41:26;0;0;
70436;PMS5003;57877;39.750;-104.894;2023-07-02T01:43:51;0;0;
70436;PMS5003;57877;39.750;-104.894;2023-07-02T01:46:16;0;0;
70436;PMS5003;57877;39.750;-104.894;2023-07-02T01:48:41;0;0;
70436;PMS5003;57877;39.750;-104.894;2023-07-02T01:51:06;0;0;
70436;PMS5003;57877;39.750;-104.894;2023-07-02T01:53:31;0;0;
70436;PMS5003;57877;39.750;-104.894;2023-07-02T01:55:56;0;0;
70436;PMS5003;57877;39.750;-104.894;2023-07-02T01:58:22;0;0;
70436;PMS5003;57877;39.750;-104.894;2023-07-02T02:00:47;0;0;
70436;PMS5003;57877;39.750;-104.894;2023-07-02T02:03:12;0;0;
70436;PMS5003;57877;39.750;-104.894;2023-07-02T02:05:37;1;0;
70436;PMS5003;57877;39.750;-104.894;2023-07-02T02:08:02;1;1;
70436;PMS5003;57877;39.750;-104.894;2023-07-02T02:10:27;0;0;
70436;PMS5003;57877;39.750;-104.894;2023-07-02T02:12:52;0;0;
70436;PMS5003;57877;39.750;-104.894;2023-07-02T02:15:17;0;0;
70436;PMS5003;57877;39.750;-104.894;2023-07-02T02:17:42;0;0;
70436;PMS5003;57877;39.750;-104.894;2023-07-02T02:20:08;1;1;
70436;PMS5003;57877;39.750;-104.894;2023-07-02T02:22:32;0;0;
70436;PMS5003;57877;39.750;-104.894;2023-07-02T02:24:57;0;0;
70436;PMS5003;57877;39.750;-104.894;2023-07-02T02:27:22;0;0;
70436;PMS5003;57877;39.750;-104.894;2023-07-02T02:29:48;0;0;
70436;PMS5003;57877;39.750;-104.894;2023-07-02T02:32:13;1;1;
70436;PMS5003;57877;39.750;-104.894;2023-07-02T02:34:38;0;0;
70436;PMS5003;57877;39.750;-104.894;2023-07-02T02:37:03;0;0;
70436;PMS5003;57877;39.750;-104.894;2023-07-02T02:39:28;1;1;
70436;PMS5003;57877;39.750;-104.894;2023-07-02T02:41:53;0;0;
70436;PMS5003;57877;39.750;-104.894;2023-07-02T02:44:18;5;5;
70436;PMS5003;57877;39.750;-104.894;2023-07-02T02:46:43;3;2;
70436;PMS5003;57877;39.750;-104.894;2023-07-02T02:49:08;0;0;
70436;PMS5003;57877;39.750;-104.894;2023-07-02T02:51:33;1;1;
70436;PMS5003;57877;39.750;-104.894;2023-07-02T02:53:58;3;1;
70436;PMS5003;57877;39.750;-104.894;2023-07-02T02:56:23;1;1;
70436;PMS5003;57877;39.750;-104.894;2023-07-02T02:58:49;2;0;
70436;PMS5003;57877;39.750;-104.894;2023-07-02T03:01:14;0;0;
70436;PMS5003;57877;39.750;-104.894;2023-07-02T03:03:39;2;2;
70436;PMS5003;57877;39.750;-104.894;2023-07-02T03:06:04;4;3;
70436;PMS5003;57877;39.750;-104.894;2023-07-02T03:08:29;4;4;
70436;PMS5003;57877;39.750;-104.894;2023-07-02T03:10:54;1;0;
70436;PMS5003;57877;39.750;-104.894;2023-07-02T03:13:19;3;2;
70436;PMS5003;57877;39.750;-104.894;2023-07-02T03:15:44;4;3;
70436;PMS5003;57877;39.750;-104.894;2023-07-02T03:18:10;1;1;
70436;PMS5003;57877;39.750;-104.894;2023-07-02T03:20:34;0;0;
70436;PMS5003;57877;39.750;-104.894;2023-07-02T03:22:59;3;3;
70436;PMS5003;57877;39.750;-104.894;2023-07-02T03:25:24;1;1;
70436;PMS5003;57877;39.750;-104.894;2023-07-02T03:27:50;0;0;
70436;PMS5003;57877;39.750;-104.894;2023-07-02T03:30:15;3;2;
70436;PMS5003;57877;39.750;-104.894;2023-07-02T03:32:40;3;3;
70436;PMS5003;57877;39.750;-104.894;2023-07-02T03:35:05;4;4;
70436;PMS5003;57877;39.750;-104.894;2023-07-02T03:37:30;4;3;
70436;PMS5003;57877;39.750;-104.894;2023-07-02T03:39:55;2;2;
70436;PMS5003;57877;39.750;-104.894;2023-07-02T03:42:20;3;3;
70436;PMS5003;57877;39.750;-104.894;2023-07-02T03:44:45;2;1;
70436;PMS5003;57877;39.750;-104.894;2023-07-02T03:47:10;2;2;
70436;PMS5003;57877;39.750;-104.894;2023-07-02T03:49:35;1;1;
70436;PMS5003;57877;39.750;-104.894;2023-07-02T03:52:00;3;3;
70436;PMS5003;57877;39.750;-104.894;2023-07-02T03:54:25;2;2;
70436;PMS5003;57877;39.750;-104.894;2023-07-02T03:56:50;3;3;
70436;PMS5003;57877;39.750;-104.894;2023-07-02T03:59:15;2;2;
70436;PMS5003;57877;39.750;-104.894;2023-07-02T04:01:40;3;2;
70436;PMS5003;57877;39.750;-104.894;2023-07-02T04:04:06;1;1;
70436;PMS5003;57877;39.750;-104.894;2023-07-02T04:06:31;0;0;
70436;PMS5003;57877;39.750;-104.894;2023-07-02T04:08:56;2;2;
70436;PMS5003;57877;39.750;-104.894;2023-07-02T04:11:21;2;2;
70436;PMS5003;57877;39.750;-104.894;2023-07-02T04:13:46;0;0;
70436;PMS5003;57877;39.750;-104.894;2023-07-02T04:16:11;2;1;
70436;PMS5003;57877;39.750;-104.894;2023-07-02T04:18:36;1;1;
70436;PMS5003;57877;39.750;-104.894;2023-07-02T04:21:01;0;0;
70436;PMS5003;57877;39.750;-104.894;2023-07-02T04:23:26;1;1;
70436;PMS5003;57877;39.750;-104.894;2023-07-02T04:25:52;1;1;
70436;PMS5003;57877;39.750;-104.894;2023-07-02T04:28:16;2;2;
70436;PMS5003;57877;39.750;-104.894;2023-07-02T04:30:41;3;2;
70436;PMS5003;57877;39.750;-104.894;2023-07-02T04:33:06;2;2;
70436;PMS5003;57877;39.750;-104.894;2023-07-02T04:35:31;1;1;
70436;PMS5003;57877;39.750;-104.894;2023-07-02T04:37:56;5;5;
70436;PMS5003;57877;39.750;-104.894;2023-07-02T04:40:21;3;3;
70436;PMS5003;57877;39.750;-104.894;2023-07-02T04:42:47;3;3;
70436;PMS5003;57877;39.750;-104.894;2023-07-02T04:45:12;3;3;
70436;PMS5003;57877;39.750;-104.894;2023-07-02T04:47:37;3;3;
70436;PMS5003;57877;39.750;-104.894;2023-07-02T04:50:02;2;2;
70436;PMS5003;57877;39.750;-104.894;2023-07-02T04:52:27;4;4;
70436;PMS5003;57877;39.750;-104.894;2023-07-02T04:54:52;6;6;
70436;PMS5003;57877;39.750;-104.894;2023-07-02T04:57:17;7;6;
70436;PMS5003;57877;39.750;-104.894;2023-07-02T04:59:42;9;9;
70436;PMS5003;57877;39.750;-104.894;2023-07-02T05:02:07;9;8;
70436;PMS5003;57877;39.750;-104.894;2023-07-02T05:04:32;15;15;
70436;PMS5003;57877;39.750;-104.894;2023-07-02T05:06:57;11;10;
70436;PMS5003;57877;39.750;-104.894;2023-07-02T05:09:22;9;9;
70436;PMS5003;57877;39.750;-104.894;2023-07-02T05:11:47;9;9;
70436;PMS5003;57877;39.750;-104.894;2023-07-02T05:14:12;12;9;
70436;PMS5003;57877;39.750;-104.894;2023-07-02T05:16:37;8;7;
70436;PMS5003;57877;39.750;-104.894;2023-07-02T05:19:03;9;9;
70436;PMS5003;57877;39.750;-104.894;2023-07-02T05:21:28;8;8;
70436;PMS5003;57877;39.750;-104.894;2023-07-02T05:23:53;7;7;
70436;PMS5003;57877;39.750;-104.894;2023-07-02T05:26:18;8;8;
70436;PMS5003;57877;39.750;-104.894;2023-07-02T05:28:43;8;8;
70436;PMS5003;57877;39.750;-104.894;2023-07-02T05:31:08;6;6;
70436;PMS5003;57877;39.750;-104.894;2023-07-02T05:33:33;4;4;
70436;PMS5003;57877;39.750;-104.894;2023-07-02T05:35:58;4;4;
70436;PMS5003;57877;39.750;-104.894;2023-07-02T05:38:23;3;3;
70436;PMS5003;57877;39.750;-104.894;2023-07-02T05:40:48;4;3;
70436;PMS5003;57877;39.750;-104.894;2023-07-02T05:43:13;3;3;
70436;PMS5003;57877;39.750;-104.894;2023-07-02T05:45:38;2;2;
70436;PMS5003;57877;39.750;-104.894;2023-07-02T05:48:03;4;4;
70436;PMS5003;57877;39.750;-104.894;2023-07-02T05:50:28;2;2;
70436;PMS5003;57877;39.750;-104.894;2023-07-02T05:52:53;3;3;
70436;PMS5003;57877;39.750;-104.894;2023-07-02T05:55:18;1;1;
70436;PMS5003;57877;39.750;-104.894;2023-07-02T05:57:43;3;3;
70436;PMS5003;57877;39.750;-104.894;2023-07-02T06:00:09;3;3;
70436;PMS5003;57877;39.750;-104.894;2023-07-02T06:02:33;2;1;
70436;PMS5003;57877;39.750;-104.894;2023-07-02T06:04:58;3;3;
70436;PMS5003;57877;39.750;-104.894;2023-07-02T06:07:24;3;3;
70436;PMS5003;57877;39.750;-104.894;2023-07-02T06:09:48;3;3;
70436;PMS5003;57877;39.750;-104.894;2023-07-02T06:12:13;3;3;
70436;PMS5003;57877;39.750;-104.894;2023-07-02T06:14:39;5;5;
70436;PMS5003;57877;39.750;-104.894;2023-07-02T06:17:04;5;4;
70436;PMS5003;57877;39.750;-104.894;2023-07-02T06:19:29;4;4;
70436;PMS5003;57877;39.750;-104.894;2023-07-02T06:21:54;6;4;
70436;PMS5003;57877;39.750;-104.894;2023-07-02T06:24:19;4;4;
70436;PMS5003;57877;39.750;-104.894;2023-07-02T06:26:44;5;5;
70436;PMS5003;57877;39.750;-104.894;2023-07-02T06:29:09;6;6;
70436;PMS5003;57877;39.750;-104.894;2023-07-02T06:31:34;5;5;
70436;PMS5003;57877;39.750;-104.894;2023-07-02T06:33:59;3;3;
70436;PMS5003;57877;39.750;-104.894;2023-07-02T06:36:25;3;3;
70436;PMS5003;57877;39.750;-104.894;2023-07-02T06:38:49;6;6;
70436;PMS5003;57877;39.750;-104.894;2023-07-02T06:41:14;7;6;
70436;PMS5003;57877;39.750;-104.894;2023-07-02T06:43:41;3;3;
70436;PMS5003;57877;39.750;-104.894;2023-07-02T06:46:04;4;4;
70436;PMS5003;57877;39.750;-104.894;2023-07-02T06:48:29;4;4;
70436;PMS5003;57877;39.750;-104.894;2023-07-02T06:50:55;8;7;
70436;PMS5003;57877;39.750;-104.894;2023-07-02T06:53:20;3;3;
70436;PMS5003;57877;39.750;-104.894;2023-07-02T06:55:44;5;5;
70436;PMS5003;57877;39.750;-104.894;2023-07-02T06:58:09;6;6;
70436;PMS5003;57877;39.750;-104.894;2023-07-02T07:00:35;4;4;
70436;PMS5003;57877;39.750;-104.894;2023-07-02T07:03:00;6;5;
70436;PMS5003;57877;39.750;-104.894;2023-07-02T07:05:25;2;2;
70436;PMS5003;57877;39.750;-104.894;2023-07-02T07:07:50;4;4;
70436;PMS5003;57877;39.750;-104.894;2023-07-02T07:10:15;3;3;
70436;PMS5003;57877;39.750;-104.894;2023-07-02T07:12:40;3;3;
70436;PMS5003;57877;39.750;-104.894;2023-07-02T07:15:05;3;3;
70436;PMS5003;57877;39.750;-104.894;2023-07-02T07:17:30;3;2;
70436;PMS5003;57877;39.750;-104.894;2023-07-02T07:19:55;5;5;
70436;PMS5003;57877;39.750;-104.894;2023-07-02T07:22:20;3;3;
70436;PMS5003;57877;39.750;-104.894;2023-07-02T07:24:45;2;2;
70436;PMS5003;57877;39.750;-104.894;2023-07-02T07:27:11;3;3;
70436;PMS5003;57877;39.750;-104.894;2023-07-02T07:29:37;2;2;
70436;PMS5003;57877;39.750;-104.894;2023-07-02T07:32:03;4;3;
70436;PMS5003;57877;39.750;-104.894;2023-07-02T07:34:28;3;3;
70436;PMS5003;57877;39.750;-104.894;2023-07-02T07:36:54;3;3;
70436;PMS5003;57877;39.750;-104.894;2023-07-02T07:39:20;2;2;
70436;PMS5003;57877;39.750;-104.894;2023-07-02T07:41:46;3;3;
70436;PMS5003;57877;39.750;-104.894;2023-07-02T07:44:12;3;3;
70436;PMS5003;57877;39.750;-104.894;2023-07-02T07:46:38;3;3;
70436;PMS5003;57877;39.750;-104.894;2023-07-02T07:49:06;4;4;
70436;PMS5003;57877;39.750;-104.894;2023-07-02T07:51:31;4;4;
70436;PMS5003;57877;39.750;-104.894;2023-07-02T07:53:56;4;4;
70436;PMS5003;57877;39.750;-104.894;2023-07-02T07:56:22;4;4;
70436;PMS5003;57877;39.750;-104.894;2023-07-02T07:58:48;5;5;
70436;PMS5003;57877;39.750;-104.894;2023-07-02T08:01:14;3;3;
70436;PMS5003;57877;39.750;-104.894;2023-07-02T08:03:40;5;4;
70436;PMS5003;57877;39.750;-104.894;2023-07-02T08:06:06;6;5;
70436;PMS5003;57877;39.750;-104.894;2023-07-02T08:08:32;6;6;
70436;PMS5003;57877;39.750;-104.894;2023-07-02T08:10:57;4;4;
70436;PMS5003;57877;39.750;-104.894;2023-07-02T08:13:23;3;3;
70436;PMS5003;57877;39.750;-104.894;2023-07-02T08:15:49;3;3;
70436;PMS5003;57877;39.750;-104.894;2023-07-02T08:18:15;5;5;
70436;PMS5003;57877;39.750;-104.894;2023-07-02T08:20:42;5;5;
70436;PMS5003;57877;39.750;-104.894;2023-07-02T08:23:07;5;5;
70436;PMS5003;57877;39.750;-104.894;2023-07-02T08:25:33;6;6;
70436;PMS5003;57877;39.750;-104.894;2023-07-02T08:27:58;6;6;
70436;PMS5003;57877;39.750;-104.894;2023-07-02T08:30:24;7;5;
70436;PMS5003;57877;39.750;-104.894;2023-07-02T08:32:50;4;4;
70436;PMS5003;57877;39.750;-104.894;2023-07-02T08:35:16;6;5;
70436;PMS5003;57877;39.750;-104.894;2023-07-02T08:37:42;5;5;
70436;PMS5003;57877;39.750;-104.894;2023-07-02T08:42:33;4;4;
70436;PMS5003;57877;39.750;-104.894;2023-07-02T08:44:59;6;6;
70436;PMS5003;57877;39.750;-104.894;2023-07-02T08:47:25;5;5;
70436;PMS5003;57877;39.750;-104.894;2023-07-02T08:49:50;4;4;
70436;PMS5003;57877;39.750;-104.894;2023-07-02T08:52:15;4;4;
70436;PMS5003;57877;39.750;-104.894;2023-07-02T08:54:41;6;6;
70436;PMS5003;57877;39.750;-104.894;2023-07-02T08:57:07;4;4;
70436;PMS5003;57877;39.750;-104.894;2023-07-02T08:59:32;4;4;
70436;PMS5003;57877;39.750;-104.894;2023-07-02T09:01:57;4;4;
70436;PMS5003;57877;39.750;-104.894;2023-07-02T09:04:23;4;4;
70436;PMS5003;57877;39.750;-104.894;2023-07-02T09:06:48;4;4;
70436;PMS5003;57877;39.750;-104.894;2023-07-02T09:09:14;3;3;
70436;PMS5003;57877;39.750;-104.894;2023-07-02T09:14:04;4;4;
70436;PMS5003;57877;39.750;-104.894;2023-07-02T09:16:30;4;4;
70436;PMS5003;57877;39.750;-104.894;2023-07-02T09:18:57;5;5;
70436;PMS5003;57877;39.750;-104.894;2023-07-02T09:21:20;4;4;
70436;PMS5003;57877;39.750;-104.894;2023-07-02T09:23:45;4;4;
70436;PMS5003;57877;39.750;-104.894;2023-07-02T09:28:36;3;3;
70436;PMS5003;57877;39.750;-104.894;2023-07-02T09:31:01;4;4;
70436;PMS5003;57877;39.750;-104.894;2023-07-02T09:33:26;6;6;
70436;PMS5003;57877;39.750;-104.894;2023-07-02T09:35:51;3;3;
70436;PMS5003;57877;39.750;-104.894;2023-07-02T09:38:16;2;2;
70436;PMS5003;57877;39.750;-104.894;2023-07-02T09:40:44;6;6;
70436;PMS5003;57877;39.750;-104.894;2023-07-02T09:43:06;4;4;
70436;PMS5003;57877;39.750;-104.894;2023-07-02T09:45:31;3;3;
70436;PMS5003;57877;39.750;-104.894;2023-07-02T09:47:57;3;2;
70436;PMS5003;57877;39.750;-104.894;2023-07-02T09:50:23;4;4;
70436;PMS5003;57877;39.750;-104.894;2023-07-02T09:52:48;4;4;
70436;PMS5003;57877;39.750;-104.894;2023-07-02T09:55:14;4;4;
70436;PMS5003;57877;39.750;-104.894;2023-07-02T09:57:38;3;3;
70436;PMS5003;57877;39.750;-104.894;2023-07-02T10:00:03;4;4;
70436;PMS5003;57877;39.750;-104.894;2023-07-02T10:02:28;4;4;
70436;PMS5003;57877;39.750;-104.894;2023-07-02T10:04:53;4;4;
70436;PMS5003;57877;39.750;-104.894;2023-07-02T10:09:44;3;3;
70436;PMS5003;57877;39.750;-104.894;2023-07-02T10:16:59;3;3;
70436;PMS5003;57877;39.750;-104.894;2023-07-02T10:19:24;3;3;
70436;PMS5003;57877;39.750;-104.894;2023-07-02T10:24:15;2;2;
70436;PMS5003;57877;39.750;-104.894;2023-07-02T10:29:05;4;4;
70436;PMS5003;57877;39.750;-104.894;2023-07-02T10:31:30;4;3;
70436;PMS5003;57877;39.750;-104.894;2023-07-02T10:33:55;3;3;
70436;PMS5003;57877;39.750;-104.894;2023-07-02T10:36:20;4;4;
70436;PMS5003;57877;39.750;-104.894;2023-07-02T10:38:45;6;5;
70436;PMS5003;57877;39.750;-104.894;2023-07-02T10:41:09;3;3;
70436;PMS5003;57877;39.750;-104.894;2023-07-02T10:43:39;5;5;
70436;PMS5003;57877;39.750;-104.894;2023-07-02T10:46:01;3;3;
70436;PMS5003;57877;39.750;-104.894;2023-07-02T10:48:26;3;3;
70436;PMS5003;57877;39.750;-104.894;2023-07-02T10:50:51;4;4;
70436;PMS5003;57877;39.750;-104.894;2023-07-02T10:53:17;4;3;
70436;PMS5003;57877;39.750;-104.894;2023-07-02T10:55:43;5;5;
70436;PMS5003;57877;39.750;-104.894;2023-07-02T10:58:09;4;4;
70436;PMS5003;57877;39.750;-104.894;2023-07-02T11:00:33;3;3;
70436;PMS5003;57877;39.750;-104.894;2023-07-02T11:02:58;2;2;
70436;PMS5003;57877;39.750;-104.894;2023-07-02T11:05:24;3;3;
70436;PMS5003;57877;39.750;-104.894;2023-07-02T11:07:48;3;3;
70436;PMS5003;57877;39.750;-104.894;2023-07-02T11:10:17;4;4;
70436;PMS5003;57877;39.750;-104.894;2023-07-02T11:12:38;8;6;
70436;PMS5003;57877;39.750;-104.894;2023-07-02T11:17:28;3;3;
70436;PMS5003;57877;39.750;-104.894;2023-07-02T11:19:53;4;4;
70436;PMS5003;57877;39.750;-104.894;2023-07-02T11:22:18;5;5;
70436;PMS5003;57877;39.750;-104.894;2023-07-02T11:24:43;5;5;
70436;PMS5003;57877;39.750;-104.894;2023-07-02T11:27:08;5;5;
70436;PMS5003;57877;39.750;-104.894;2023-07-02T11:29:33;4;3;
70436;PMS5003;57877;39.750;-104.894;2023-07-02T11:34:23;3;2;
70436;PMS5003;57877;39.750;-104.894;2023-07-02T11:36:49;4;4;
70436;PMS5003;57877;39.750;-104.894;2023-07-02T11:39:14;3;2;
70436;PMS5003;57877;39.750;-104.894;2023-07-02T11:41:40;5;5;
70436;PMS5003;57877;39.750;-104.894;2023-07-02T11:44:04;3;3;
70436;PMS5003;57877;39.750;-104.894;2023-07-02T11:46:29;5;5;
70436;PMS5003;57877;39.750;-104.894;2023-07-02T11:48:55;3;3;
70436;PMS5003;57877;39.750;-104.894;2023-07-02T11:51:21;4;4;
70436;PMS5003;57877;39.750;-104.894;2023-07-02T11:53:47;7;7;
70436;PMS5003;57877;39.750;-104.894;2023-07-02T11:56:12;4;4;
70436;PMS5003;57877;39.750;-104.894;2023-07-02T11:58:37;3;3;
70436;PMS5003;57877;39.750;-104.894;2023-07-02T12:01:02;6;6;
70436;PMS5003;57877;39.750;-104.894;2023-07-02T12:03:27;4;4;
70436;PMS5003;57877;39.750;-104.894;2023-07-02T12:05:53;3;3;
70436;PMS5003;57877;39.750;-104.894;2023-07-02T12:08:20;3;3;
70436;PMS5003;57877;39.750;-104.894;2023-07-02T12:10:44;4;4;
70436;PMS5003;57877;39.750;-104.894;2023-07-02T12:13:09;4;4;
70436;PMS5003;57877;39.750;-104.894;2023-07-02T12:15:35;5;5;
70436;PMS5003;57877;39.750;-104.894;2023-07-02T12:18:01;4;4;
70436;PMS5003;57877;39.750;-104.894;2023-07-02T12:20:26;4;4;
70436;PMS5003;57877;39.750;-104.894;2023-07-02T12:22:51;3;3;
70436;PMS5003;57877;39.750;-104.894;2023-07-02T12:25:16;2;2;
70436;PMS5003;57877;39.750;-104.894;2023-07-02T12:27:41;6;6;
70436;PMS5003;57877;39.750;-104.894;2023-07-02T12:30:06;5;5;
70436;PMS5003;57877;39.750;-104.894;2023-07-02T12:32:31;2;2;
70436;PMS5003;57877;39.750;-104.894;2023-07-02T12:34:56;4;4;
70436;PMS5003;57877;39.750;-104.894;2023-07-02T12:37:21;4;3;
70436;PMS5003;57877;39.750;-104.894;2023-07-02T12:39:46;5;3;
70436;PMS5003;57877;39.750;-104.894;2023-07-02T12:42:11;2;2;
70436;PMS5003;57877;39.750;-104.894;2023-07-02T12:44:36;3;3;
70436;PMS5003;57877;39.750;-104.894;2023-07-02T12:47:01;4;4;
70436;PMS5003;57877;39.750;-104.894;2023-07-02T12:49:26;3;2;
70436;PMS5003;57877;39.750;-104.894;2023-07-02T12:51:51;2;2;
70436;PMS5003;57877;39.750;-104.894;2023-07-02T12:54:16;4;4;
70436;PMS5003;57877;39.750;-104.894;2023-07-02T12:56:41;2;2;
70436;PMS5003;57877;39.750;-104.894;2023-07-02T12:59:06;2;2;
70436;PMS5003;57877;39.750;-104.894;2023-07-02T13:01:31;4;3;
70436;PMS5003;57877;39.750;-104.894;2023-07-02T13:03:56;3;3;
70436;PMS5003;57877;39.750;-104.894;2023-07-02T13:06:21;3;3;
70436;PMS5003;57877;39.750;-104.894;2023-07-02T13:08:46;3;2;
70436;PMS5003;57877;39.750;-104.894;2023-07-02T13:11:11;2;2;
70436;PMS5003;57877;39.750;-104.894;2023-07-02T13:13:36;3;3;
70436;PMS5003;57877;39.750;-104.894;2023-07-02T13:16:01;3;2;
70436;PMS5003;57877;39.750;-104.894;2023-07-02T13:18:26;2;2;
70436;PMS5003;57877;39.750;-104.894;2023-07-02T13:20:51;2;2;
70436;PMS5003;57877;39.750;-104.894;2023-07-02T13:23:17;2;2;
70436;PMS5003;57877;39.750;-104.894;2023-07-02T13:25:41;3;3;
70436;PMS5003;57877;39.750;-104.894;2023-07-02T13:28:06;1;1;
70436;PMS5003;57877;39.750;-104.894;2023-07-02T13:30:32;2;2;
70436;PMS5003;57877;39.750;-104.894;2023-07-02T13:32:57;2;2;
70436;PMS5003;57877;39.750;-104.894;2023-07-02T13:35:22;3;3;
70436;PMS5003;57877;39.750;-104.894;2023-07-02T13:37:47;2;2;
70436;PMS5003;57877;39.750;-104.894;2023-07-02T13:40:12;2;2;
70436;PMS5003;57877;39.750;-104.894;2023-07-02T13:42:37;4;4;
70436;PMS5003;57877;39.750;-104.894;2023-07-02T13:45:02;2;2;
70436;PMS5003;57877;39.750;-104.894;2023-07-02T13:47:27;2;1;
70436;PMS5003;57877;39.750;-104.894;2023-07-02T13:49:52;1;1;
70436;PMS5003;57877;39.750;-104.894;2023-07-02T13:52:17;3;3;
70436;PMS5003;57877;39.750;-104.894;2023-07-02T13:54:42;3;3;
70436;PMS5003;57877;39.750;-104.894;2023-07-02T13:57:07;2;2;
70436;PMS5003;57877;39.750;-104.894;2023-07-02T13:59:32;2;2;
70436;PMS5003;57877;39.750;-104.894;2023-07-02T14:01:57;3;2;
70436;PMS5003;57877;39.750;-104.894;2023-07-02T14:04:22;3;3;
70436;PMS5003;57877;39.750;-104.894;2023-07-02T14:06:48;3;2;
70436;PMS5003;57877;39.750;-104.894;2023-07-02T14:09:14;2;2;
70436;PMS5003;57877;39.750;-104.894;2023-07-02T14:11:41;2;2;
70436;PMS5003;57877;39.750;-104.894;2023-07-02T14:14:06;2;2;
70436;PMS5003;57877;39.750;-104.894;2023-07-02T14:16:32;3;3;
70436;PMS5003;57877;39.750;-104.894;2023-07-02T14:18:58;1;1;
70436;PMS5003;57877;39.750;-104.894;2023-07-02T14:21:24;3;3;
70436;PMS5003;57877;39.750;-104.894;2023-07-02T14:23:50;2;2;
70436;PMS5003;57877;39.750;-104.894;2023-07-02T14:26:16;3;3;
70436;PMS5003;57877;39.750;-104.894;2023-07-02T14:28:42;2;2;
70436;PMS5003;57877;39.750;-104.894;2023-07-02T14:31:07;2;2;
70436;PMS5003;57877;39.750;-104.894;2023-07-02T14:33:34;2;2;
70436;PMS5003;57877;39.750;-104.894;2023-07-02T14:35:59;3;2;
70436;PMS5003;57877;39.750;-104.894;2023-07-02T14:38:25;2;2;
70436;PMS5003;57877;39.750;-104.894;2023-07-02T14:40:52;2;2;
70436;PMS5003;57877;39.750;-104.894;2023-07-02T14:43:16;1;1;
70436;PMS5003;57877;39.750;-104.894;2023-07-02T14:45:45;3;3;
70436;PMS5003;57877;39.750;-104.894;2023-07-02T14:48:08;4;4;
70436;PMS5003;57877;39.750;-104.894;2023-07-02T14:50:34;1;1;
70436;PMS5003;57877;39.750;-104.894;2023-07-02T14:53:00;4;3;
70436;PMS5003;57877;39.750;-104.894;2023-07-02T14:55:26;3;3;
70436;PMS5003;57877;39.750;-104.894;2023-07-02T14:57:52;2;2;
70436;PMS5003;57877;39.750;-104.894;2023-07-02T15:00:18;3;3;
70436;PMS5003;57877;39.750;-104.894;2023-07-02T15:02:44;2;2;
70436;PMS5003;57877;39.750;-104.894;2023-07-02T15:05:10;3;3;
70436;PMS5003;57877;39.750;-104.894;2023-07-02T15:07:36;3;3;
70436;PMS5003;57877;39.750;-104.894;2023-07-02T15:10:02;3;3;
70436;PMS5003;57877;39.750;-104.894;2023-07-02T15:12:27;3;3;
70436;PMS5003;57877;39.750;-104.894;2023-07-02T15:14:54;3;3;
70436;PMS5003;57877;39.750;-104.894;2023-07-02T15:17:18;3;3;
70436;PMS5003;57877;39.750;-104.894;2023-07-02T15:19:44;3;3;
70436;PMS5003;57877;39.750;-104.894;2023-07-02T15:22:08;3;3;
70436;PMS5003;57877;39.750;-104.894;2023-07-02T15:24:33;3;3;
70436;PMS5003;57877;39.750;-104.894;2023-07-02T15:26:58;2;2;
70436;PMS5003;57877;39.750;-104.894;2023-07-02T15:29:23;2;2;
70436;PMS5003;57877;39.750;-104.894;2023-07-02T15:31:48;2;2;
70436;PMS5003;57877;39.750;-104.894;2023-07-02T15:34:13;2;2;
70436;PMS5003;57877;39.750;-104.894;2023-07-02T15:36:43;2;2;
70436;PMS5003;57877;39.750;-104.894;2023-07-02T15:39:04;3;3;
70436;PMS5003;57877;39.750;-104.894;2023-07-02T15:41:29;1;1;
70436;PMS5003;57877;39.750;-104.894;2023-07-02T15:43:54;3;3;
70436;PMS5003;57877;39.750;-104.894;2023-07-02T15:46:19;3;3;
70436;PMS5003;57877;39.750;-104.894;2023-07-02T15:48:44;1;1;
70436;PMS5003;57877;39.750;-104.894;2023-07-02T15:51:09;0;0;
70436;PMS5003;57877;39.750;-104.894;2023-07-02T15:53:35;1;1;
70436;PMS5003;57877;39.750;-104.894;2023-07-02T15:55:59;0;0;
70436;PMS5003;57877;39.750;-104.894;2023-07-02T15:58:25;1;1;
70436;PMS5003;57877;39.750;-104.894;2023-07-02T16:00:50;1;1;
70436;PMS5003;57877;39.750;-104.894;2023-07-02T16:03:15;0;0;
70436;PMS5003;57877;39.750;-104.894;2023-07-02T16:05:40;0;0;
70436;PMS5003;57877;39.750;-104.894;2023-07-02T16:08:05;1;1;
70436;PMS5003;57877;39.750;-104.894;2023-07-02T16:10:30;2;2;
70436;PMS5003;57877;39.750;-104.894;2023-07-02T16:12:55;1;1;
70436;PMS5003;57877;39.750;-104.894;2023-07-02T16:15:20;1;1;